createdAt,value
2022-09-23T00:01:46.618Z,1.75
2022-09-23T00:04:14.426Z,1.58
2022-09-23T00:06:44.190Z,1.95
2022-09-23T00:09:12.499Z,1.58
2022-09-23T00:11:40.404Z,1.85
2022-09-23T00:14:08.125Z,1.80
2022-09-23T00:16:35.851Z,2.03
2022-09-23T00:19:04.964Z,2.40
2022-09-23T00:21:32.644Z,2.00
2022-09-23T00:24:00.477Z,2.00
2022-09-23T00:26:28.262Z,2.17
2022-09-23T00:28:56.038Z,2.20
2022-09-23T00:31:26.213Z,2.28
2022-09-23T00:33:59.230Z,2.15
2022-09-23T00:36:28.465Z,2.70
2022-09-23T00:38:57.027Z,2.60
2022-09-23T00:41:25.995Z,2.85
2022-09-23T00:44:01.235Z,2.58
2022-09-23T00:46:43.656Z,2.58
2022-09-23T00:49:14.156Z,2.70
2022-09-23T00:51:48.309Z,2.50
2022-09-23T00:56:44.723Z,2.40
2022-09-23T00:59:14.037Z,2.58
2022-09-23T01:01:43.026Z,2.67
2022-09-23T01:04:10.842Z,2.35
2022-09-23T01:06:38.651Z,2.33
2022-09-23T01:09:06.701Z,2.70
2022-09-23T01:11:49.061Z,2.60
2022-09-23T01:14:41.312Z,2.33
2022-09-23T01:17:24.301Z,2.88
2022-09-23T01:20:25.096Z,2.45
2022-09-23T01:23:07.692Z,2.63
2022-09-23T01:26:00.268Z,2.83
2022-09-23T01:28:37.146Z,2.38
2022-09-23T01:31:13.815Z,2.88
2022-09-23T01:33:51.314Z,2.60
2022-09-23T01:36:24.633Z,2.60
2022-09-23T01:39:03.997Z,2.27
2022-09-23T01:41:34.560Z,2.67
2022-09-23T01:44:25.573Z,2.72
2022-09-23T01:46:59.974Z,2.47
2022-09-23T01:49:39.642Z,2.30
2022-09-23T01:52:16.100Z,2.22
2022-09-23T01:55:19.087Z,2.17
2022-09-23T01:57:53.451Z,1.85
2022-09-23T02:00:24.081Z,2.00
2022-09-23T02:02:59.458Z,2.58
2022-09-23T02:05:42.995Z,1.90
2022-09-23T02:08:29.594Z,1.70
2022-09-23T02:11:09.077Z,1.67
2022-09-23T02:13:52.489Z,1.58
2022-09-23T02:16:40.986Z,2.22
2022-09-23T02:19:21.259Z,2.03
2022-09-23T02:22:11.947Z,1.75
2022-09-23T02:24:40.394Z,1.50
2022-09-23T02:27:18.563Z,1.58
2022-09-23T02:30:03.913Z,1.67
2022-09-23T02:32:49.899Z,1.63
2022-09-23T02:35:41.285Z,1.40
2022-09-23T02:38:26.047Z,1.67
2022-09-23T02:41:32.776Z,1.25
2022-09-23T02:44:10.568Z,1.60
2022-09-23T02:46:39.195Z,1.35
2022-09-23T02:49:28.405Z,1.30
2022-09-23T02:51:57.675Z,1.42
2022-09-23T02:54:28.467Z,1.27
2022-09-23T02:56:57.509Z,1.33
2022-09-23T02:59:25.220Z,1.60
2022-09-23T03:01:58.707Z,1.35
2022-09-23T03:04:40.153Z,1.50
2022-09-23T03:07:17.409Z,1.35
2022-09-23T03:09:54.627Z,1.30
2022-09-23T03:12:53.188Z,1.23
2022-09-23T03:15:31.897Z,1.48
2022-09-23T03:18:05.576Z,1.35
2022-09-23T03:20:39.866Z,1.40
2022-09-23T03:25:43.078Z,1.50
2022-09-23T03:28:12.302Z,1.75
2022-09-23T03:30:40.540Z,1.33
2022-09-23T03:33:12.653Z,1.25
2022-09-23T03:36:11.661Z,1.27
2022-09-23T03:38:45.254Z,1.15
2022-09-23T03:41:20.089Z,1.50
2022-09-23T03:43:48.337Z,1.20
2022-09-23T03:46:17.866Z,1.63
2022-09-23T03:48:45.808Z,1.30
2022-09-23T03:51:31.527Z,1.42
2022-09-23T03:53:59.319Z,1.98
2022-09-23T03:56:27.053Z,1.33
2022-09-23T03:58:54.729Z,1.60
2022-09-23T04:01:22.917Z,1.25
2022-09-23T04:03:53.025Z,1.50
2022-09-23T04:06:21.256Z,1.00
2022-09-23T04:08:49.264Z,1.30
2022-09-23T04:11:17.051Z,1.55
2022-09-23T04:13:44.794Z,1.20
2022-09-23T04:16:12.560Z,1.30
2022-09-23T04:18:40.392Z,1.30
2022-09-23T04:21:08.180Z,1.70
2022-09-23T04:23:35.954Z,1.08
2022-09-23T04:26:05.857Z,1.30
2022-09-23T04:28:34.427Z,1.27
2022-09-23T04:31:07.224Z,1.48
2022-09-23T04:33:35.950Z,1.50
2022-09-23T04:36:03.854Z,1.65
2022-09-23T04:38:31.730Z,1.55
2022-09-23T04:40:59.509Z,1.50
2022-09-23T04:43:27.334Z,1.45
2022-09-23T04:46:03.180Z,1.38
2022-09-23T04:48:31.893Z,1.63
2022-09-23T04:51:04.778Z,1.98
2022-09-23T04:53:33.538Z,1.88
2022-09-23T04:56:34.706Z,2.25
2022-09-23T04:59:06.564Z,1.70
2022-09-23T05:01:39.049Z,1.80
2022-09-23T05:04:15.063Z,2.03
2022-09-23T05:06:45.775Z,2.05
2022-09-23T05:09:19.389Z,1.90
2022-09-23T05:11:50.706Z,2.35
2022-09-23T05:14:41.254Z,2.38
2022-09-23T05:17:15.079Z,1.70
2022-09-23T05:19:55.140Z,2.55
2022-09-23T05:22:31.920Z,3.15
2022-09-23T05:25:08.786Z,2.75
2022-09-23T05:27:41.581Z,3.63
2022-09-23T05:30:13.285Z,3.72
2022-09-23T05:32:46.880Z,4.13
2022-09-23T05:35:15.025Z,4.03
2022-09-23T05:37:42.900Z,3.92
2022-09-23T05:40:10.971Z,3.78
2022-09-23T05:42:38.891Z,3.58
2022-09-23T05:45:07.802Z,3.00
2022-09-23T05:47:35.569Z,3.72
2022-09-23T05:50:03.411Z,2.90
2022-09-23T05:52:31.718Z,3.72
2022-09-23T05:54:59.498Z,3.38
2022-09-23T05:57:27.530Z,2.53
2022-09-23T05:59:55.380Z,2.50
2022-09-23T06:02:23.517Z,2.22
2022-09-23T06:04:51.541Z,2.20
2022-09-23T06:07:19.920Z,1.88
2022-09-23T06:09:47.740Z,2.13
2022-09-23T06:12:15.534Z,2.40
2022-09-23T06:14:43.363Z,2.03
2022-09-23T06:17:11.111Z,2.38
2022-09-23T06:19:38.921Z,1.73
2022-09-23T06:22:06.750Z,1.92
2022-09-23T06:24:34.513Z,2.22
2022-09-23T06:27:03.078Z,1.75
2022-09-23T06:29:33.350Z,2.00
2022-09-23T06:32:01.518Z,1.67
2022-09-23T06:34:30.393Z,1.67
2022-09-23T06:37:02.188Z,1.70
2022-09-23T06:39:33.603Z,1.70
2022-09-23T06:42:01.552Z,1.52
2022-09-23T06:44:29.627Z,1.95
2022-09-23T06:46:57.589Z,1.60
2022-09-23T06:49:25.413Z,1.33
2022-09-23T06:51:53.181Z,1.17
2022-09-23T06:54:21.016Z,1.60
2022-09-23T06:56:48.850Z,2.30
2022-09-23T06:59:17.298Z,1.67
2022-09-23T07:01:47.318Z,1.63
2022-09-23T07:04:15.239Z,1.65
2022-09-23T07:06:43.019Z,1.80
2022-09-23T07:09:11.199Z,1.35
2022-09-23T07:11:39.648Z,1.38
2022-09-23T07:14:07.518Z,1.75
2022-09-23T07:16:35.304Z,2.28
2022-09-23T07:19:03.068Z,2.13
2022-09-23T07:21:31.030Z,1.83
2022-09-23T07:23:58.920Z,2.15
2022-09-23T07:26:27.014Z,2.10
2022-09-23T07:28:56.927Z,1.85
2022-09-23T07:31:37.098Z,1.50
2022-09-23T07:34:08.492Z,1.23
2022-09-23T07:36:37.563Z,1.40
2022-09-23T07:39:05.658Z,1.50
2022-09-23T07:41:34.908Z,2.75
2022-09-23T07:44:03.351Z,3.17
2022-09-23T07:46:34.225Z,2.67
2022-09-23T07:49:03.368Z,2.30
2022-09-23T07:51:36.358Z,2.17
2022-09-23T07:54:11.589Z,2.00
2022-09-23T07:56:43.206Z,2.15
2022-09-23T07:59:18.440Z,1.85
2022-09-23T08:01:48.593Z,2.33
2022-09-23T08:04:20.483Z,1.90
2022-09-23T08:06:53.637Z,2.33
2022-09-23T08:09:24.503Z,1.97
2022-09-23T08:11:53.201Z,2.40
2022-09-23T08:14:22.558Z,2.28
2022-09-23T08:16:52.007Z,2.13
2022-09-23T08:19:20.017Z,2.33
2022-09-23T08:21:47.915Z,2.25
2022-09-23T08:24:18.594Z,1.50
2022-09-23T08:26:48.033Z,1.88
2022-09-23T08:29:18.293Z,1.33
2022-09-23T08:31:46.668Z,1.60
2022-09-23T08:34:14.450Z,1.88
2022-09-23T08:36:44.799Z,1.77
2022-09-23T08:39:20.815Z,1.90
2022-09-23T08:41:58.436Z,1.58
2022-09-23T08:44:48.552Z,1.73
2022-09-23T08:47:29.831Z,1.75
2022-09-23T08:50:03.167Z,1.58
2022-09-23T08:52:57.109Z,1.30
2022-09-23T08:55:43.583Z,1.40
2022-09-23T08:58:26.352Z,1.80
2022-09-23T09:01:03.651Z,1.42
2022-09-23T09:03:40.270Z,1.38
2022-09-23T09:06:16.095Z,1.70
2022-09-23T09:08:49.634Z,1.30
2022-09-23T09:11:19.388Z,1.50
2022-09-23T09:14:27.621Z,1.38
2022-09-23T09:17:01.388Z,2.30
2022-09-23T09:22:01.473Z,1.83
2022-09-23T09:24:35.304Z,1.83
2022-09-23T09:27:11.990Z,1.70
2022-09-23T09:29:49.930Z,3.33
2022-09-23T09:32:48.662Z,7.40
2022-09-23T09:35:37.922Z,1.83
2022-09-23T09:38:09.120Z,2.42
2022-09-23T09:40:43.581Z,1.75
2022-09-23T09:43:23.719Z,1.70
2022-09-23T09:46:34.271Z,1.92
2022-09-23T09:49:14.018Z,2.03
2022-09-23T09:51:42.607Z,1.27
2022-09-23T09:54:24.799Z,1.73
2022-09-23T09:56:53.749Z,1.55
2022-09-23T09:59:30.655Z,4.07
2022-09-23T10:02:21.656Z,2.05
2022-09-23T10:05:07.368Z,1.42
2022-09-23T10:07:35.216Z,1.38
2022-09-23T10:10:32.782Z,1.90
2022-09-23T10:13:16.285Z,2.00
2022-09-23T10:15:45.554Z,2.05
2022-09-23T10:18:25.185Z,2.10
2022-09-23T10:20:53.091Z,1.65
2022-09-23T10:23:27.423Z,1.67
2022-09-23T10:25:58.798Z,1.42
2022-09-23T10:28:46.377Z,1.65
2022-09-23T10:31:29.254Z,1.70
2022-09-23T10:34:02.437Z,1.45
2022-09-23T10:36:32.464Z,1.95
2022-09-23T10:39:22.423Z,1.27
2022-09-23T10:42:21.175Z,1.67
2022-09-23T10:45:24.529Z,1.38
2022-09-23T10:48:19.482Z,0.93
2022-09-23T10:50:54.171Z,1.13
2022-09-23T10:53:43.225Z,1.83
2022-09-23T10:56:23.359Z,1.45
2022-09-23T10:59:07.806Z,1.42
2022-09-23T11:02:02.877Z,1.65
2022-09-23T11:04:49.342Z,1.20
2022-09-23T11:07:49.508Z,1.35
2022-09-23T11:10:50.959Z,1.40
2022-09-23T11:13:38.109Z,1.60
2022-09-23T11:16:29.383Z,1.45
2022-09-23T11:19:02.195Z,1.50
2022-09-23T11:21:34.848Z,1.50
2022-09-23T11:24:37.285Z,1.50
2022-09-23T11:27:17.836Z,1.15
2022-09-23T11:30:10.335Z,1.50
2022-09-23T11:32:56.910Z,1.88
2022-09-23T11:35:37.175Z,1.83
2022-09-23T11:38:18.897Z,2.13
2022-09-23T11:40:56.439Z,2.17
2022-09-23T11:43:28.768Z,1.50
2022-09-23T11:46:15.549Z,1.58
2022-09-23T11:49:17.274Z,1.58
2022-09-23T11:52:10.654Z,1.42
2022-09-23T11:55:23.334Z,1.42
2022-09-23T11:58:24.083Z,1.30
2022-09-23T12:01:09.588Z,1.75
2022-09-23T12:03:45.031Z,2.35
2022-09-23T12:06:43.266Z,1.30
2022-09-23T12:09:58.266Z,1.38
2022-09-23T12:12:47.837Z,1.55
2022-09-23T12:15:55.019Z,2.17
2022-09-23T12:18:36.316Z,1.92
2022-09-23T12:21:56.959Z,1.60
2022-09-23T12:24:39.670Z,1.87
2022-09-23T12:27:24.774Z,2.08
2022-09-23T12:30:02.850Z,1.08
2022-09-23T12:32:33.118Z,1.95
2022-09-23T12:35:05.281Z,1.95
2022-09-23T12:37:38.449Z,2.10
2022-09-23T12:40:17.271Z,1.55
2022-09-23T12:42:47.415Z,1.67
2022-09-23T12:45:36.088Z,1.88
2022-09-23T12:48:44.335Z,1.40
2022-09-23T12:51:13.651Z,1.45
2022-09-23T12:53:49.099Z,1.50
2022-09-23T12:56:35.736Z,1.70
2022-09-23T12:59:33.475Z,1.77
2022-09-23T13:02:38.623Z,1.40
2022-09-23T13:05:35.734Z,1.60
2022-09-23T13:08:17.059Z,1.50
2022-09-23T13:11:08.958Z,1.80
2022-09-23T13:13:47.699Z,2.47
2022-09-23T13:16:37.270Z,1.38
2022-09-23T13:19:26.405Z,1.48
2022-09-23T13:21:54.285Z,1.63
2022-09-23T13:24:26.010Z,2.03
2022-09-23T13:27:01.385Z,1.70
2022-09-23T13:29:33.678Z,1.58
2022-09-23T13:32:06.805Z,1.48
2022-09-23T13:34:39.602Z,2.55
2022-09-23T13:37:23.198Z,1.73
2022-09-23T13:39:52.718Z,2.07
2022-09-23T13:42:33.094Z,2.72
2022-09-23T13:45:03.808Z,1.92
2022-09-23T13:47:34.963Z,2.45
2022-09-23T13:50:03.165Z,2.38
2022-09-23T13:52:33.698Z,2.53
2022-09-23T13:55:02.047Z,1.90
2022-09-23T13:57:34.256Z,2.88
2022-09-23T14:00:17.462Z,2.63
2022-09-23T14:02:47.114Z,2.75
2022-09-23T14:05:24.449Z,2.65
2022-09-23T14:07:54.064Z,2.22
2022-09-23T14:10:24.994Z,2.40
2022-09-23T14:12:54.563Z,2.15
2022-09-23T14:15:23.242Z,2.40
2022-09-23T14:18:06.479Z,2.30
2022-09-23T14:20:46.203Z,3.13
2022-09-23T14:23:14.874Z,1.60
2022-09-23T14:25:47.099Z,2.92
2022-09-23T14:28:20.315Z,2.65
2022-09-23T14:30:50.173Z,3.03
2022-09-23T14:33:23.348Z,2.20
2022-09-23T14:35:54.962Z,3.03
2022-09-23T14:38:47.586Z,2.42
2022-09-23T14:41:24.543Z,2.83
2022-09-23T14:43:55.040Z,3.00
2022-09-23T14:46:24.415Z,2.60
2022-09-23T14:48:55.234Z,2.80
2022-09-23T14:51:50.483Z,2.60
2022-09-23T14:54:47.136Z,2.80
2022-09-23T14:57:23.933Z,2.60
2022-09-23T14:59:56.636Z,2.95
2022-09-23T15:02:31.483Z,2.60
2022-09-23T15:05:14.779Z,2.90
2022-09-23T15:07:47.723Z,3.43
2022-09-23T15:10:27.910Z,3.05
2022-09-23T15:13:09.031Z,2.70
2022-09-23T15:15:37.541Z,3.03
2022-09-23T15:18:14.398Z,3.17
2022-09-23T15:20:50.768Z,3.03
2022-09-23T15:23:50.953Z,2.80
2022-09-23T15:26:22.699Z,3.10
2022-09-23T15:28:56.038Z,3.05
2022-09-23T15:31:27.364Z,2.90
2022-09-23T15:33:56.161Z,3.10
2022-09-23T15:36:26.695Z,3.25
2022-09-23T15:39:02.957Z,2.80
2022-09-23T15:41:32.515Z,2.88
2022-09-23T15:44:28.743Z,3.08
2022-09-23T15:47:00.143Z,3.25
2022-09-23T15:49:39.329Z,3.22
2022-09-23T15:52:10.372Z,3.22
2022-09-23T15:54:39.311Z,3.47
2022-09-23T15:57:07.070Z,2.85
2022-09-23T15:59:34.924Z,3.58
2022-09-23T16:02:07.978Z,2.78
2022-09-23T16:04:36.260Z,3.20
2022-09-23T16:07:05.981Z,3.25
2022-09-23T16:09:33.913Z,3.47
2022-09-23T16:12:03.376Z,2.83
2022-09-23T16:14:31.299Z,3.20
2022-09-23T16:16:59.170Z,2.97
2022-09-23T16:19:27.078Z,3.03
2022-09-23T16:21:54.977Z,3.20
2022-09-23T16:24:27.882Z,3.05
2022-09-23T16:27:00.111Z,3.35
2022-09-23T16:29:28.097Z,4.68
2022-09-23T16:31:56.190Z,2.95
2022-09-23T16:34:24.100Z,3.17
2022-09-23T16:36:52.021Z,3.53
2022-09-23T16:39:20.766Z,3.40
2022-09-23T16:41:48.709Z,3.03
2022-09-23T16:44:16.657Z,3.90
2022-09-23T16:46:49.938Z,3.20
2022-09-23T16:49:22.351Z,3.25
2022-09-23T16:51:51.429Z,3.45
2022-09-23T16:54:24.264Z,3.58
2022-09-23T16:56:55.634Z,3.13
2022-09-23T16:59:44.990Z,3.70
2022-09-23T17:02:31.567Z,3.20
2022-09-23T17:05:01.620Z,4.22
2022-09-23T17:07:29.481Z,3.38
2022-09-23T17:09:58.145Z,3.42
2022-09-23T17:12:34.239Z,3.15
2022-09-23T17:15:06.357Z,3.22
2022-09-23T17:17:37.231Z,4.05
2022-09-23T17:20:06.813Z,3.92
2022-09-23T17:22:34.858Z,4.00
2022-09-23T17:25:04.241Z,3.72
2022-09-23T17:27:32.221Z,4.00
2022-09-23T17:30:00.013Z,3.90
2022-09-23T17:32:27.914Z,3.38
2022-09-23T17:34:55.828Z,4.07
2022-09-23T17:37:24.091Z,4.53
2022-09-23T17:39:51.971Z,4.38
2022-09-23T17:42:19.822Z,4.07
2022-09-23T17:44:48.188Z,4.15
2022-09-23T17:47:16.051Z,4.00
2022-09-23T17:49:45.197Z,3.92
2022-09-23T17:52:13.065Z,4.13
2022-09-23T17:54:42.763Z,5.00
2022-09-23T17:57:11.714Z,4.97
2022-09-23T17:59:39.889Z,4.32
2022-09-23T18:02:07.850Z,4.53
2022-09-23T18:04:37.059Z,4.68
2022-09-23T18:07:05.036Z,4.75
2022-09-23T18:09:32.936Z,4.78
2022-09-23T18:12:01.208Z,4.40
2022-09-23T18:14:29.946Z,4.25
2022-09-23T18:16:58.644Z,4.55
2022-09-23T18:19:26.611Z,5.53
2022-09-23T18:21:59.050Z,4.13
2022-09-23T18:24:32.749Z,5.22
2022-09-23T18:27:02.664Z,5.07
2022-09-23T18:29:32.742Z,4.03
2022-09-23T18:32:01.163Z,3.58
2022-09-23T18:34:29.930Z,3.13
2022-09-23T18:36:58.009Z,3.25
2022-09-23T18:39:26.817Z,3.13
2022-09-23T18:41:54.946Z,2.42
2022-09-23T18:44:25.060Z,2.63
2022-09-23T18:46:54.233Z,2.42
2022-09-23T18:49:40.992Z,3.05
2022-09-23T18:52:09.121Z,2.33
2022-09-23T18:54:37.415Z,3.00
2022-09-23T18:57:05.353Z,3.08
2022-09-23T18:59:34.814Z,2.55
2022-09-23T19:02:02.785Z,2.65
2022-09-23T19:04:32.084Z,2.42
2022-09-23T19:07:00.443Z,2.38
2022-09-23T19:09:28.497Z,2.50
2022-09-23T19:11:57.857Z,2.38
2022-09-23T19:14:28.718Z,2.42
2022-09-23T19:16:57.094Z,2.47
2022-09-23T19:19:26.156Z,2.42
2022-09-23T19:21:56.663Z,2.72
2022-09-23T19:24:25.123Z,2.65
2022-09-23T19:26:56.997Z,2.50
2022-09-23T19:29:28.945Z,2.53
2022-09-23T19:31:59.356Z,3.20
2022-09-23T19:34:30.918Z,2.50
2022-09-23T19:36:59.496Z,2.80
2022-09-23T19:39:31.761Z,2.85
2022-09-23T19:42:02.031Z,2.88
2022-09-23T19:44:33.210Z,2.70
2022-09-23T19:47:03.478Z,2.80
2022-09-23T19:49:32.155Z,2.65
2022-09-23T19:52:01.260Z,2.90
2022-09-23T19:54:35.263Z,3.03
2022-09-23T19:57:08.242Z,2.67
2022-09-23T19:59:37.019Z,2.35
2022-09-23T20:02:06.939Z,2.88
2022-09-23T20:04:35.780Z,2.88
2022-09-23T20:07:05.074Z,2.55
2022-09-23T20:09:34.640Z,2.58
2022-09-23T20:12:05.121Z,3.03
2022-09-23T20:14:35.867Z,2.83
2022-09-23T20:17:05.359Z,3.08
2022-09-23T20:19:35.743Z,2.83
2022-09-23T20:22:22.710Z,2.92
2022-09-23T20:24:57.716Z,3.08
2022-09-23T20:27:31.700Z,3.15
2022-09-23T20:30:03.327Z,3.33
2022-09-23T20:32:32.650Z,3.17
2022-09-23T20:35:02.979Z,3.08
2022-09-23T20:37:33.751Z,3.00
2022-09-23T20:40:02.895Z,3.28
2022-09-23T20:42:30.744Z,3.70
2022-09-23T20:45:00.099Z,3.35
2022-09-23T20:47:32.366Z,3.17
2022-09-23T20:50:02.490Z,3.22
2022-09-23T20:52:32.328Z,3.95
2022-09-23T20:55:01.965Z,3.10
2022-09-23T20:57:32.637Z,3.15
2022-09-23T21:00:02.393Z,3.42
2022-09-23T21:02:32.180Z,3.25
2022-09-23T21:05:09.384Z,3.33
2022-09-23T21:07:37.724Z,3.47
2022-09-23T21:10:10.965Z,3.60
2022-09-23T21:12:43.409Z,3.78
2022-09-23T21:15:11.524Z,3.28
2022-09-23T21:17:41.765Z,3.90
2022-09-23T21:20:10.509Z,3.70
2022-09-23T21:22:38.910Z,3.40
2022-09-23T21:25:27.920Z,3.65
2022-09-23T21:28:03.348Z,3.60
2022-09-23T21:30:32.553Z,3.67
2022-09-23T21:33:02.045Z,3.83
2022-09-23T21:35:30.580Z,3.80
2022-09-23T21:38:01.048Z,4.05
2022-09-23T21:40:47.447Z,3.83
2022-09-23T21:43:16.813Z,3.58
2022-09-23T21:45:44.987Z,3.35
2022-09-23T21:48:13.032Z,3.65
2022-09-23T21:50:41.574Z,3.40
2022-09-23T21:53:10.063Z,3.60
2022-09-23T21:55:38.069Z,3.72
2022-09-23T21:58:07.070Z,3.65
2022-09-23T22:00:35.015Z,3.85
2022-09-23T22:03:03.067Z,3.42
2022-09-23T22:05:30.911Z,3.38
2022-09-23T22:07:58.955Z,3.33
2022-09-23T22:10:26.754Z,2.97
2022-09-23T22:12:54.577Z,3.08
2022-09-23T22:15:22.350Z,3.38
2022-09-23T22:17:50.194Z,3.28
2022-09-23T22:20:18.026Z,3.35
2022-09-23T22:22:45.973Z,3.10
2022-09-23T22:25:14.053Z,3.38
2022-09-23T22:28:01.781Z,3.13
2022-09-23T22:30:48.124Z,2.83
2022-09-23T22:33:16.761Z,3.10
2022-09-23T22:35:44.575Z,3.00
2022-09-23T22:38:12.673Z,3.05
2022-09-23T22:40:43.696Z,2.85
2022-09-23T22:43:11.820Z,3.42
2022-09-23T22:45:39.862Z,2.65
2022-09-23T22:48:07.695Z,3.15
2022-09-23T22:50:39.512Z,2.88
2022-09-23T22:53:09.220Z,3.05
2022-09-23T22:55:37.099Z,2.20
2022-09-23T22:58:21.563Z,2.33
2022-09-23T23:00:55.929Z,2.70
2022-09-23T23:03:26.812Z,2.92
2022-09-23T23:05:57.609Z,2.65
2022-09-23T23:08:27.358Z,2.90
2022-09-23T23:10:59.106Z,2.15
2022-09-23T23:13:33.561Z,2.50
2022-09-23T23:16:06.589Z,2.47
2022-09-23T23:18:36.557Z,2.45
2022-09-23T23:21:16.766Z,2.33
2022-09-23T23:23:50.700Z,2.40
2022-09-23T23:26:24.132Z,2.05
2022-09-23T23:28:53.644Z,2.22
2022-09-23T23:31:23.202Z,1.95
2022-09-23T23:33:51.411Z,2.20
2022-09-23T23:36:22.150Z,2.10
2022-09-23T23:38:54.146Z,2.15
2022-09-23T23:41:23.030Z,2.10
2022-09-23T23:43:56.203Z,2.33
2022-09-23T23:46:26.644Z,2.28
2022-09-23T23:48:56.194Z,2.42
2022-09-23T23:51:28.043Z,2.45
2022-09-23T23:53:56.720Z,2.22
2022-09-23T23:56:26.161Z,2.05
2022-09-23T23:59:03.865Z,1.60
